createdAt,value
2023-04-27T00:01:45.973Z,12.8414917
2023-04-27T00:01:48.654Z,12.8112793
2023-04-27T00:03:18.468Z,12.8112793
2023-04-27T00:04:19.967Z,12.8112793
2023-04-27T00:05:21.313Z,12.8012085
2023-04-27T00:06:22.768Z,12.8112793
2023-04-27T00:07:24.452Z,12.8414917
2023-04-27T00:08:26.329Z,12.8515625
2023-04-27T00:09:28.300Z,12.8515625
2023-04-27T00:10:29.863Z,12.8717041
2023-04-27T00:11:31.790Z,12.8717041
2023-04-27T00:12:33.301Z,12.8414917
2023-04-27T00:13:35.405Z,12.8414917
2023-04-27T00:14:37.328Z,12.8414917
2023-04-27T00:15:39.455Z,12.8414917
2023-04-27T00:16:41.537Z,12.8112793
2023-04-27T00:17:43.361Z,12.8414917
2023-04-27T00:18:46.254Z,12.8414917
2023-04-27T00:20:18.848Z,12.8414917
2023-04-27T00:21:20.773Z,12.8112793
2023-04-27T00:22:22.315Z,12.8414917
2023-04-27T00:23:23.897Z,12.8414917
2023-04-27T00:24:25.913Z,12.8414917
2023-04-27T00:25:27.854Z,12.8515625
2023-04-27T00:26:29.397Z,12.8515625
2023-04-27T00:27:31.347Z,12.8414917
2023-04-27T00:28:33.320Z,12.8012085
2023-04-27T00:29:34.824Z,12.8112793
2023-04-27T00:30:36.525Z,12.8414917
2023-04-27T00:31:38.400Z,12.8717041
2023-04-27T00:32:40.356Z,12.8817749
2023-04-27T00:33:41.882Z,12.8817749
2023-04-27T00:34:43.821Z,12.8817749
2023-04-27T00:35:45.309Z,12.8918457
2023-04-27T00:36:47.287Z,12.8918457
2023-04-27T00:38:19.760Z,12.8817749
2023-04-27T00:39:21.285Z,12.8717041
2023-04-27T00:40:22.800Z,12.8717041
2023-04-27T00:41:24.275Z,12.8112793
2023-04-27T00:42:25.677Z,12.8515625
2023-04-27T00:43:27.186Z,12.8112793
2023-04-27T00:44:28.810Z,12.8414917
2023-04-27T00:45:30.162Z,12.8112793
2023-04-27T00:46:31.707Z,12.8414917
2023-04-27T00:47:33.831Z,12.8112793
2023-04-27T00:48:35.339Z,12.8112793
2023-04-27T00:49:36.348Z,12.8414917
2023-04-27T00:50:38.338Z,12.8112793
2023-04-27T00:51:39.866Z,12.8414917
2023-04-27T00:52:41.826Z,12.8414917
2023-04-27T00:53:43.360Z,12.8112793
2023-04-27T00:54:45.271Z,12.7911377
2023-04-27T00:56:17.807Z,12.7911377
2023-04-27T00:57:19.288Z,12.76092529
2023-04-27T00:58:20.829Z,12.77099609
2023-04-27T00:59:22.305Z,12.76092529
2023-04-27T01:00:23.765Z,12.76092529
2023-04-27T01:01:25.309Z,12.77099609
2023-04-27T01:02:26.913Z,12.74078369
2023-04-27T01:03:28.451Z,12.74078369
2023-04-27T01:04:29.319Z,12.71057129
2023-04-27T01:05:32.503Z,12.71057129
2023-04-27T01:06:32.281Z,12.70050049
2023-04-27T01:07:34.286Z,12.67028809
2023-04-27T01:08:35.910Z,12.66021729
2023-04-27T01:09:37.704Z,12.66021729
2023-04-27T01:10:39.372Z,12.63000488
2023-04-27T01:11:41.218Z,12.66021729
2023-04-27T01:12:42.763Z,12.66021729
2023-04-27T01:13:44.809Z,12.63000488
2023-04-27T01:14:46.820Z,12.61993408
2023-04-27T01:16:19.389Z,12.60986328
2023-04-27T01:17:20.757Z,12.57965088
2023-04-27T01:18:21.840Z,12.57965088
2023-04-27T01:19:23.251Z,12.55950928
2023-04-27T01:20:25.118Z,12.57965088
2023-04-27T01:21:26.799Z,12.55950928
2023-04-27T01:22:28.745Z,12.57965088
2023-04-27T01:23:30.235Z,12.58972168
2023-04-27T01:24:31.762Z,12.58972168
2023-04-27T01:25:33.278Z,12.58972168
2023-04-27T01:26:34.799Z,12.57965088
2023-04-27T01:27:36.299Z,12.58972168
2023-04-27T01:28:37.759Z,12.60986328
2023-04-27T01:29:39.368Z,12.60986328
2023-04-27T01:30:41.299Z,12.58972168
2023-04-27T01:31:43.354Z,12.61993408
2023-04-27T01:32:44.317Z,12.61993408
2023-04-27T01:33:46.188Z,12.60986328
2023-04-27T01:35:18.780Z,12.61993408
2023-04-27T01:36:20.330Z,12.60986328
2023-04-27T01:37:21.747Z,12.60986328
2023-04-27T01:38:23.253Z,12.66021729
2023-04-27T01:39:24.753Z,12.66021729
2023-04-27T01:40:26.337Z,12.66021729
2023-04-27T01:41:28.381Z,12.63000488
2023-04-27T01:42:30.310Z,12.63000488
2023-04-27T01:43:31.684Z,12.60986328
2023-04-27T01:44:33.327Z,12.58972168
2023-04-27T01:45:34.857Z,12.60986328
2023-04-27T01:46:36.870Z,12.60986328
2023-04-27T01:47:38.335Z,12.60986328
2023-04-27T01:48:39.794Z,12.60986328
2023-04-27T01:49:40.642Z,12.60986328
2023-04-27T01:50:42.314Z,12.58972168
2023-04-27T01:51:44.304Z,12.58972168
2023-04-27T01:52:46.293Z,12.57965088
2023-04-27T01:54:18.270Z,12.58972168
2023-04-27T01:55:19.878Z,12.58972168
2023-04-27T01:56:21.836Z,12.58972168
2023-04-27T01:57:22.784Z,12.61993408
2023-04-27T01:58:24.232Z,12.63000488
2023-04-27T01:59:25.760Z,12.63000488
2023-04-27T02:00:27.328Z,12.61993408
2023-04-27T02:01:28.876Z,12.60986328
2023-04-27T02:02:30.453Z,12.58972168
2023-04-27T02:03:31.898Z,12.57965088
2023-04-27T02:04:33.487Z,12.55950928
2023-04-27T02:05:34.907Z,12.54943848
2023-04-27T02:06:35.800Z,12.54943848
2023-04-27T02:07:37.277Z,12.54943848
2023-04-27T02:08:38.872Z,12.55950928
2023-04-27T02:09:40.768Z,12.53936768
2023-04-27T02:10:42.445Z,12.53936768
2023-04-27T02:11:44.372Z,12.53936768
2023-04-27T02:13:17.279Z,12.54943848
2023-04-27T02:14:18.793Z,12.53936768
2023-04-27T02:15:20.288Z,12.53936768
2023-04-27T02:16:21.867Z,12.51922607
2023-04-27T02:17:23.859Z,12.53936768
2023-04-27T02:18:25.692Z,12.55950928
2023-04-27T02:19:27.220Z,12.55950928
2023-04-27T02:20:28.852Z,12.54943848
2023-04-27T02:21:30.900Z,12.54943848
2023-04-27T02:22:32.320Z,12.54943848
2023-04-27T02:23:33.805Z,12.54943848
2023-04-27T02:24:35.284Z,12.54943848
2023-04-27T02:25:36.837Z,12.54943848
2023-04-27T02:26:38.392Z,12.54943848
2023-04-27T02:27:40.310Z,12.54943848
2023-04-27T02:28:42.203Z,12.55950928
2023-04-27T02:29:44.182Z,12.54943848
2023-04-27T02:31:17.368Z,12.51922607
2023-04-27T02:32:18.830Z,12.51922607
2023-04-27T02:33:20.297Z,12.51922607
2023-04-27T02:34:22.340Z,12.50915527
2023-04-27T02:35:23.232Z,12.50915527
2023-04-27T02:36:24.831Z,12.51922607
2023-04-27T02:37:26.900Z,12.51922607
2023-04-27T02:38:28.769Z,12.51922607
2023-04-27T02:39:30.307Z,12.48901367
2023-04-27T02:40:31.737Z,12.50915527
2023-04-27T02:41:33.407Z,12.51922607
2023-04-27T02:42:35.465Z,12.50915527
2023-04-27T02:43:37.284Z,12.51922607
2023-04-27T02:44:38.796Z,12.50915527
2023-04-27T02:45:40.403Z,12.48901367
2023-04-27T02:46:42.397Z,12.47894287
2023-04-27T02:47:45.869Z,12.47894287
2023-04-27T02:49:20.188Z,12.45880127
2023-04-27T02:50:22.961Z,12.42858887
2023-04-27T02:51:25.739Z,12.42858887
2023-04-27T02:52:30.482Z,12.42858887
2023-04-27T02:53:35.475Z,12.40844727
2023-04-27T02:54:37.719Z,12.40844727
2023-04-27T02:55:40.293Z,12.39837646
2023-04-27T02:56:43.254Z,12.36816406
2023-04-27T02:57:46.828Z,12.35809326
2023-04-27T02:59:21.042Z,12.35809326
2023-04-27T03:00:23.710Z,12.36816406
2023-04-27T03:01:25.597Z,12.36816406
2023-04-27T03:02:27.402Z,12.35809326
2023-04-27T03:03:29.498Z,12.35809326
2023-04-27T03:04:30.748Z,12.32788086
2023-04-27T03:05:32.234Z,12.30773926
2023-04-27T03:06:33.954Z,12.29766846
2023-04-27T03:07:35.802Z,12.30773926
2023-04-27T03:08:37.350Z,12.28759766
2023-04-27T03:09:38.751Z,12.28759766
2023-04-27T03:10:40.502Z,12.22717285
2023-04-27T03:11:42.343Z,12.21710205
2023-04-27T03:12:44.321Z,12.20703125
2023-04-27T03:13:46.316Z,12.17681885
2023-04-27T03:15:18.187Z,12.17681885
2023-04-27T03:16:19.992Z,12.15667725
2023-04-27T03:17:21.898Z,12.14660645
2023-04-27T03:18:23.317Z,12.12646484
2023-04-27T03:19:24.776Z,12.12646484
2023-04-27T03:20:26.188Z,12.11639404
2023-04-27T03:21:27.861Z,12.07611084
2023-04-27T03:22:29.444Z,12.04589844
2023-04-27T03:23:31.381Z,12.06604004
2023-04-27T03:24:33.250Z,12.03582764
2023-04-27T03:25:34.755Z,12.04589844
2023-04-27T03:26:36.257Z,12.02575684
2023-04-27T03:27:37.859Z,11.99554443
2023-04-27T03:28:39.873Z,11.99554443
2023-04-27T03:29:41.821Z,11.99554443
2023-04-27T03:30:44.075Z,11.97540283
2023-04-27T03:32:17.302Z,11.95526123
2023-04-27T03:33:18.850Z,11.93511963
2023-04-27T03:34:20.822Z,11.90490723
2023-04-27T03:35:21.817Z,11.85455322
2023-04-27T03:36:23.333Z,11.85455322
2023-04-27T03:37:24.827Z,11.84448242
2023-04-27T03:38:26.325Z,11.82434082
2023-04-27T03:39:28.394Z,11.82434082
2023-04-27T03:40:30.340Z,11.85455322
2023-04-27T03:41:31.809Z,11.85455322
2023-04-27T03:42:33.404Z,11.82434082
2023-04-27T03:43:35.434Z,11.79412842
2023-04-27T03:44:37.286Z,11.79412842
2023-04-27T03:45:38.818Z,11.75384521
2023-04-27T03:46:40.259Z,11.75384521
2023-04-27T03:47:41.438Z,11.70349121
2023-04-27T03:48:42.461Z,11.69342041
2023-04-27T03:49:44.264Z,11.75384521
2023-04-27T03:51:16.984Z,11.77398682
2023-04-27T03:52:19.074Z,11.78405762
2023-04-27T03:53:20.782Z,11.77398682
2023-04-27T03:54:23.137Z,11.74377441
2023-04-27T03:55:25.353Z,11.75384521
2023-04-27T03:56:27.580Z,11.70349121
2023-04-27T03:57:29.475Z,11.69342041
2023-04-27T03:58:31.802Z,11.67327881
2023-04-27T03:59:34.139Z,11.66320801
2023-04-27T04:00:35.820Z,11.66320801
2023-04-27T04:01:37.421Z,11.64306641
2023-04-27T04:02:38.999Z,11.66320801
2023-04-27T04:03:40.915Z,11.63299561
2023-04-27T04:04:42.614Z,11.6229248
2023-04-27T04:05:44.648Z,11.5927124
2023-04-27T04:07:17.271Z,11.5625
2023-04-27T04:08:18.871Z,11.5725708
2023-04-27T04:09:22.716Z,11.5423584
2023-04-27T04:10:22.856Z,11.49200439
2023-04-27T04:11:24.250Z,11.45172119
2023-04-27T04:12:26.866Z,11.45172119
2023-04-27T04:13:29.399Z,11.39129639
2023-04-27T04:14:30.365Z,11.38122559
2023-04-27T04:15:32.308Z,11.39129639
2023-04-27T04:16:33.739Z,11.38122559
2023-04-27T04:17:35.348Z,11.35101318
2023-04-27T04:18:36.852Z,11.33087158
2023-04-27T04:19:37.859Z,11.30065918
2023-04-27T04:20:39.732Z,11.28051758
2023-04-27T04:21:41.305Z,11.26037598
2023-04-27T04:22:42.936Z,11.26037598
2023-04-27T04:23:44.921Z,11.28051758
2023-04-27T04:25:17.421Z,11.26037598
2023-04-27T04:26:19.324Z,11.24023438
2023-04-27T04:27:20.951Z,11.21002197
2023-04-27T04:28:22.928Z,11.21002197
2023-04-27T04:29:24.926Z,11.19995117
2023-04-27T04:30:26.819Z,11.23016357
2023-04-27T04:31:28.316Z,11.19995117
2023-04-27T04:32:29.884Z,11.19995117
2023-04-27T04:33:31.438Z,11.19995117
2023-04-27T04:34:33.409Z,11.21002197
2023-04-27T04:35:35.278Z,11.18988037
2023-04-27T04:36:36.211Z,11.18988037
2023-04-27T04:37:37.796Z,11.18988037
2023-04-27T04:38:39.443Z,11.12945557
2023-04-27T04:39:41.418Z,11.08917236
2023-04-27T04:40:45.860Z,11.11938477
2023-04-27T04:42:16.316Z,11.16973877
2023-04-27T04:43:17.919Z,11.19995117
2023-04-27T04:44:19.979Z,11.19995117
2023-04-27T04:45:21.823Z,11.18988037
2023-04-27T04:46:23.307Z,11.18988037
2023-04-27T04:47:25.325Z,11.16973877
2023-04-27T04:48:27.474Z,11.12945557
2023-04-27T04:49:29.520Z,11.12945557
2023-04-27T04:50:31.352Z,11.12945557
2023-04-27T04:51:32.776Z,11.11938477
2023-04-27T04:52:34.273Z,11.08917236
2023-04-27T04:53:35.927Z,11.08917236
2023-04-27T04:54:37.986Z,11.10931396
2023-04-27T04:55:39.836Z,11.11938477
2023-04-27T04:56:41.780Z,11.11938477
2023-04-27T04:57:43.318Z,11.15966797
2023-04-27T04:59:16.893Z,11.15966797
2023-04-27T05:00:18.878Z,11.18988037
2023-04-27T05:01:20.873Z,11.15966797
2023-04-27T05:02:22.950Z,11.12945557
2023-04-27T05:03:24.561Z,11.11938477
2023-04-27T05:04:26.004Z,11.10931396
2023-04-27T05:05:27.356Z,11.10931396
2023-04-27T05:06:28.891Z,11.08917236
2023-04-27T05:07:30.831Z,11.10931396
2023-04-27T05:08:32.662Z,11.11938477
2023-04-27T05:09:34.500Z,11.11938477
2023-04-27T05:10:36.425Z,11.15966797
2023-04-27T05:11:38.219Z,11.16973877
2023-04-27T05:12:39.798Z,11.16973877
2023-04-27T05:13:41.385Z,11.19995117
2023-04-27T05:14:43.407Z,11.18988037
2023-04-27T05:16:16.887Z,11.21002197
2023-04-27T05:17:18.420Z,11.24023438
2023-04-27T05:18:19.865Z,11.26037598
2023-04-27T05:19:21.852Z,11.28051758
2023-04-27T05:20:23.339Z,11.31072998
2023-04-27T05:21:24.720Z,11.28051758
2023-04-27T05:22:26.254Z,11.28051758
2023-04-27T05:23:27.720Z,11.28051758
2023-04-27T05:24:29.226Z,11.27044678
2023-04-27T05:25:30.814Z,11.28051758
2023-04-27T05:26:32.445Z,11.31072998
2023-04-27T05:27:34.256Z,11.39129639
2023-04-27T05:28:35.818Z,11.42150879
2023-04-27T05:29:37.250Z,11.48193359
2023-04-27T05:30:38.800Z,11.49200439
2023-04-27T05:31:40.464Z,11.512146
2023-04-27T05:32:41.826Z,11.512146
2023-04-27T05:33:43.194Z,11.5725708
2023-04-27T05:35:15.862Z,11.5725708
2023-04-27T05:36:16.769Z,11.5725708
2023-04-27T05:37:18.294Z,11.5725708
2023-04-27T05:38:19.677Z,11.6229248
2023-04-27T05:39:21.310Z,11.63299561
2023-04-27T05:40:22.961Z,11.64306641
2023-04-27T05:41:24.807Z,11.64306641
2023-04-27T05:42:26.384Z,11.6229248
2023-04-27T05:43:27.790Z,11.6027832
2023-04-27T05:44:29.392Z,11.5625
2023-04-27T05:45:31.407Z,11.5725708
2023-04-27T05:46:32.936Z,11.5927124
2023-04-27T05:47:35.326Z,11.5927124
2023-04-27T05:48:36.795Z,11.6027832
2023-04-27T05:49:38.284Z,11.5927124
2023-04-27T05:50:39.887Z,11.6229248
2023-04-27T05:51:41.892Z,11.63299561
2023-04-27T05:53:15.390Z,11.63299561
2023-04-27T05:54:16.792Z,11.66320801
2023-04-27T05:55:18.225Z,11.64306641
2023-04-27T05:56:19.773Z,11.69342041
2023-04-27T05:57:21.304Z,11.70349121
2023-04-27T05:58:22.754Z,11.75384521
2023-04-27T05:59:24.227Z,11.81427002
2023-04-27T06:00:25.795Z,11.81427002
2023-04-27T06:01:27.394Z,11.81427002
2023-04-27T06:02:28.961Z,11.82434082
2023-04-27T06:03:30.497Z,11.84448242
2023-04-27T06:04:31.841Z,11.88476563
2023-04-27T06:05:33.521Z,11.90490723
2023-04-27T06:06:34.891Z,11.92504883
2023-04-27T06:07:37.704Z,11.95526123
2023-04-27T06:08:39.655Z,11.97540283
2023-04-27T06:09:41.389Z,11.97540283
2023-04-27T06:10:42.839Z,12.03582764
2023-04-27T06:12:16.346Z,12.06604004
2023-04-27T06:13:18.344Z,12.07611084
2023-04-27T06:14:19.907Z,12.12646484
2023-04-27T06:15:21.343Z,12.12646484
2023-04-27T06:16:22.901Z,12.14660645
2023-04-27T06:17:24.330Z,12.18688965
2023-04-27T06:18:25.784Z,12.20703125
2023-04-27T06:19:27.350Z,12.21710205
2023-04-27T06:20:28.793Z,12.24731445
2023-04-27T06:21:30.284Z,12.28759766
2023-04-27T06:22:31.854Z,12.29766846
2023-04-27T06:23:33.374Z,12.29766846
2023-04-27T06:24:34.838Z,12.32788086
2023-04-27T06:25:36.204Z,12.33795166
2023-04-27T06:26:37.704Z,12.36816406
2023-04-27T06:27:39.444Z,12.39837646
2023-04-27T06:28:41.231Z,12.42858887
2023-04-27T06:29:43.319Z,12.45880127
2023-04-27T06:31:15.840Z,12.45880127
2023-04-27T06:32:17.187Z,12.48901367
2023-04-27T06:33:18.778Z,12.48901367
2023-04-27T06:34:20.280Z,12.50915527
2023-04-27T06:35:21.780Z,12.55950928
2023-04-27T06:36:23.336Z,12.54943848
2023-04-27T06:37:24.954Z,12.54943848
2023-04-27T06:38:26.327Z,12.55950928
2023-04-27T06:39:27.746Z,12.55950928
2023-04-27T06:40:29.393Z,12.55950928
2023-04-27T06:41:31.283Z,12.60986328
2023-04-27T06:42:32.737Z,12.60986328
2023-04-27T06:43:34.324Z,12.61993408
2023-04-27T06:44:35.836Z,12.66021729
2023-04-27T06:45:37.338Z,12.67028809
2023-04-27T06:46:39.092Z,12.70050049
2023-04-27T06:47:40.320Z,12.70050049
2023-04-27T06:48:41.770Z,12.73071289
2023-04-27T06:50:14.392Z,12.76092529
2023-04-27T06:51:15.841Z,12.77099609
2023-04-27T06:52:17.322Z,12.76092529
2023-04-27T06:53:18.771Z,12.77099609
2023-04-27T06:54:20.280Z,12.77099609
2023-04-27T06:55:21.863Z,12.7911377
2023-04-27T06:56:23.299Z,12.7911377
2023-04-27T06:57:24.740Z,12.8012085
2023-04-27T06:58:26.257Z,12.7911377
2023-04-27T06:59:27.797Z,12.8112793
2023-04-27T07:00:29.240Z,12.8515625
2023-04-27T07:01:30.844Z,12.8515625
2023-04-27T07:02:32.346Z,12.8817749
2023-04-27T07:03:33.891Z,12.8918457
2023-04-27T07:04:35.350Z,12.8918457
2023-04-27T07:05:36.788Z,12.8918457
2023-04-27T07:06:38.297Z,12.92205811
2023-04-27T07:07:39.805Z,12.92205811
2023-04-27T07:08:41.250Z,12.98248291
2023-04-27T07:10:14.298Z,13.01269531
2023-04-27T07:11:15.806Z,13.04290771
2023-04-27T07:12:17.350Z,13.06304932
2023-04-27T07:13:18.825Z,13.07312012
2023-04-27T07:14:20.300Z,13.10333252
2023-04-27T07:15:21.814Z,13.12347412
2023-04-27T07:16:23.353Z,13.14361572
2023-04-27T07:17:25.358Z,13.16375732
2023-04-27T07:18:26.803Z,13.17382813
2023-04-27T07:19:28.303Z,13.19396973
2023-04-27T07:20:29.806Z,13.22418213
2023-04-27T07:21:31.377Z,13.22418213
2023-04-27T07:22:32.756Z,13.24432373
2023-04-27T07:23:34.227Z,13.27453613
2023-04-27T07:24:35.799Z,13.27453613
2023-04-27T07:25:37.300Z,13.31481934
2023-04-27T07:26:38.812Z,13.32489014
2023-04-27T07:27:40.353Z,13.35510254
2023-04-27T07:28:41.796Z,13.43566895
2023-04-27T07:30:14.861Z,13.45581055
2023-04-27T07:31:15.743Z,13.47595215
2023-04-27T07:32:16.712Z,13.49609375
2023-04-27T07:33:18.387Z,13.49609375
2023-04-27T07:34:20.376Z,13.52630615
2023-04-27T07:35:21.811Z,13.54644775
2023-04-27T07:36:23.246Z,13.58673096
2023-04-27T07:37:24.793Z,13.58673096
2023-04-27T07:38:26.304Z,13.61694336
2023-04-27T07:39:27.750Z,13.64715576
2023-04-27T07:40:29.304Z,13.65722656
2023-04-27T07:41:30.753Z,13.67736816
2023-04-27T07:42:32.299Z,13.70758057
2023-04-27T07:43:33.840Z,13.71765137
2023-04-27T07:44:35.317Z,13.74786377
2023-04-27T07:45:36.871Z,13.74786377
2023-04-27T07:46:38.284Z,13.75793457
2023-04-27T07:47:39.846Z,13.79821777
2023-04-27T07:48:41.486Z,13.82843018
2023-04-27T07:50:13.829Z,13.85864258
2023-04-27T07:51:15.346Z,13.86871338
2023-04-27T07:52:16.945Z,13.87878418
2023-04-27T07:53:18.853Z,13.90899658
2023-04-27T07:54:20.433Z,13.93920898
2023-04-27T07:55:21.976Z,13.95935059
2023-04-27T07:56:23.851Z,13.98956299
2023-04-27T07:57:25.297Z,14.00970459
2023-04-27T07:58:26.824Z,14.00970459
2023-04-27T07:59:28.269Z,14.01977539
2023-04-27T08:00:29.783Z,14.04998779
2023-04-27T08:01:31.331Z,14.06005859
2023-04-27T08:02:32.551Z,14.0802002
2023-04-27T08:03:34.202Z,14.1104126
2023-04-27T08:04:35.723Z,14.1305542
2023-04-27T08:05:37.053Z,14.1305542
2023-04-27T08:06:39.047Z,14.1607666
2023-04-27T08:07:44.593Z,14.1708374
2023-04-27T08:08:42.262Z,14.2010498
2023-04-27T08:10:15.309Z,14.23126221
2023-04-27T08:11:16.826Z,14.26147461
2023-04-27T08:12:18.486Z,14.27154541
2023-04-27T08:13:20.272Z,14.29168701
2023-04-27T08:14:22.648Z,14.30175781
2023-04-27T08:15:24.268Z,14.31182861
2023-04-27T08:16:25.869Z,14.34204102
2023-04-27T08:17:27.254Z,14.35211182
2023-04-27T08:18:28.082Z,14.36218262
2023-04-27T08:19:28.919Z,14.38232422
2023-04-27T08:20:30.815Z,14.36218262
2023-04-27T08:21:32.204Z,14.38232422
2023-04-27T08:22:33.741Z,14.38232422
2023-04-27T08:23:35.211Z,14.38232422
2023-04-27T08:24:36.724Z,14.39239502
2023-04-27T08:25:38.228Z,14.41253662
2023-04-27T08:26:39.911Z,14.41253662
2023-04-27T08:27:42.183Z,14.45281982
2023-04-27T08:29:26.341Z,14.46289063
2023-04-27T08:30:16.829Z,14.48303223
2023-04-27T08:31:17.678Z,14.49310303
2023-04-27T08:32:19.193Z,14.52331543
2023-04-27T08:33:20.758Z,14.53338623
2023-04-27T08:34:22.208Z,14.53338623
2023-04-27T08:35:23.805Z,14.56359863
2023-04-27T08:36:25.213Z,14.56359863
2023-04-27T08:37:27.349Z,14.59381104
2023-04-27T08:38:28.775Z,14.59381104
2023-04-27T08:39:30.316Z,14.60388184
2023-04-27T08:40:31.797Z,14.63409424
2023-04-27T08:41:33.212Z,14.64416504
2023-04-27T08:42:34.728Z,14.69451904
2023-04-27T08:43:36.805Z,14.71466064
2023-04-27T08:44:37.676Z,14.72473145
2023-04-27T08:45:38.558Z,14.74487305
2023-04-27T08:46:39.486Z,14.78515625
2023-04-27T08:47:43.909Z,14.78515625
2023-04-27T08:49:15.152Z,14.81536865
2023-04-27T08:50:14.794Z,14.82543945
2023-04-27T08:51:15.748Z,14.81536865
2023-04-27T08:52:16.548Z,14.84558105
2023-04-27T08:53:17.434Z,14.89593506
2023-04-27T08:54:19.266Z,14.92614746
2023-04-27T08:55:20.802Z,14.93621826
2023-04-27T08:56:22.275Z,14.96643066
2023-04-27T08:57:24.013Z,14.97650146
2023-04-27T08:58:25.847Z,15.00671387
2023-04-27T08:59:27.785Z,15.02685547
2023-04-27T09:00:29.408Z,15.04699707
2023-04-27T09:01:31.398Z,15.08728027
2023-04-27T09:02:32.954Z,15.11749268
2023-04-27T09:03:34.436Z,15.14770508
2023-04-27T09:04:35.998Z,15.18798828
2023-04-27T09:05:37.290Z,15.21820068
2023-04-27T09:06:38.841Z,15.26855469
2023-04-27T09:07:40.386Z,15.30883789
2023-04-27T09:09:14.007Z,15.32897949
2023-04-27T09:10:15.414Z,15.32897949
2023-04-27T09:11:16.809Z,15.33905029
2023-04-27T09:12:18.364Z,15.33905029
2023-04-27T09:13:19.783Z,15.34912109
2023-04-27T09:14:21.284Z,15.3793335
2023-04-27T09:15:22.847Z,15.4095459
2023-04-27T09:16:24.398Z,15.3793335
2023-04-27T09:17:25.893Z,15.3793335
2023-04-27T09:18:27.348Z,15.3994751
2023-04-27T09:19:28.848Z,15.4296875
2023-04-27T09:20:30.229Z,15.4598999
2023-04-27T09:21:31.768Z,15.51025391
2023-04-27T09:22:33.405Z,15.53039551
2023-04-27T09:23:34.872Z,15.58074951
2023-04-27T09:24:36.874Z,15.60089111
2023-04-27T09:25:38.332Z,15.64117432
2023-04-27T09:26:39.893Z,15.67138672
2023-04-27T09:28:13.762Z,15.70159912
2023-04-27T09:29:15.624Z,15.74188232
2023-04-27T09:30:17.412Z,15.77209473
2023-04-27T09:31:19.360Z,15.81237793
2023-04-27T09:32:20.975Z,15.85266113
2023-04-27T09:33:22.467Z,15.89294434
2023-04-27T09:34:24.466Z,15.92315674
2023-04-27T09:35:26.392Z,15.95336914
2023-04-27T09:36:27.782Z,15.98358154
2023-04-27T09:37:29.306Z,15.99365234
2023-04-27T09:38:30.989Z,15.99365234
2023-04-27T09:39:32.851Z,15.99365234
2023-04-27T09:40:34.293Z,16.01379395
2023-04-27T09:41:35.752Z,15.99365234
2023-04-27T09:42:37.330Z,15.98358154
2023-04-27T09:43:38.841Z,15.96343994
2023-04-27T09:44:40.514Z,15.93322754
2023-04-27T09:46:12.739Z,15.91308594
2023-04-27T09:47:14.423Z,15.91308594
2023-04-27T09:48:16.302Z,15.89294434
2023-04-27T09:49:17.831Z,15.89294434
2023-04-27T09:50:19.441Z,15.89294434
2023-04-27T09:51:21.239Z,15.88287354
2023-04-27T09:52:22.848Z,15.89294434
2023-04-27T09:53:23.783Z,15.88287354
2023-04-27T09:54:24.781Z,15.86273193
2023-04-27T09:55:26.672Z,15.86273193
2023-04-27T09:56:28.347Z,15.85266113
2023-04-27T09:57:29.765Z,15.84259033
2023-04-27T09:58:31.381Z,15.80230713
2023-04-27T09:59:32.884Z,15.76202393
2023-04-27T10:00:34.325Z,15.77209473
2023-04-27T10:01:37.265Z,15.73181152
2023-04-27T10:02:50.096Z,15.71166992
2023-04-27T10:03:37.873Z,15.66131592
2023-04-27T10:04:39.460Z,15.60089111
2023-04-27T10:06:12.853Z,15.62103271
2023-04-27T10:07:14.302Z,15.64117432
2023-04-27T10:08:15.850Z,15.64117432
2023-04-27T10:09:17.344Z,15.66131592
2023-04-27T10:10:18.996Z,15.66131592
2023-04-27T10:11:20.414Z,15.67138672
2023-04-27T10:12:22.356Z,15.67138672
2023-04-27T10:13:23.854Z,15.67138672
2023-04-27T10:14:25.431Z,15.67138672
2023-04-27T10:15:26.867Z,15.71166992
2023-04-27T10:16:28.395Z,15.71166992
2023-04-27T10:17:29.896Z,15.74188232
2023-04-27T10:18:31.361Z,15.76202393
2023-04-27T10:19:32.915Z,15.78216553
2023-04-27T10:20:34.433Z,15.81237793
2023-04-27T10:21:36.297Z,15.84259033
2023-04-27T10:22:37.750Z,15.86273193
2023-04-27T10:23:39.193Z,15.89294434
2023-04-27T10:25:12.423Z,15.91308594
2023-04-27T10:26:13.881Z,15.92315674
2023-04-27T10:27:15.376Z,15.93322754
2023-04-27T10:28:16.912Z,15.93322754
2023-04-27T10:29:18.777Z,15.98358154
2023-04-27T10:30:20.356Z,15.98358154
2023-04-27T10:31:21.883Z,16.03393555
2023-04-27T10:32:23.260Z,16.04400635
2023-04-27T10:33:24.850Z,16.08428955
2023-04-27T10:34:26.275Z,16.07421875
2023-04-27T10:35:27.822Z,16.07421875
2023-04-27T10:36:29.330Z,16.13464355
2023-04-27T10:37:30.853Z,16.18499756
2023-04-27T10:38:32.431Z,16.24542236
2023-04-27T10:39:44.093Z,16.28570557
2023-04-27T10:40:35.895Z,16.33605957
2023-04-27T10:41:37.394Z,16.43676758
2023-04-27T10:42:38.819Z,16.49719238
2023-04-27T10:43:40.678Z,16.61804199
2023-04-27T10:45:13.862Z,16.6583252
2023-04-27T10:46:15.411Z,16.668396
2023-04-27T10:47:17.370Z,16.6583252
2023-04-27T10:48:18.715Z,16.6583252
2023-04-27T10:49:20.244Z,16.62811279
2023-04-27T10:50:22.003Z,16.62811279
2023-04-27T10:51:23.922Z,16.58782959
2023-04-27T10:52:25.813Z,16.56768799
2023-04-27T10:53:27.274Z,16.58782959
2023-04-27T10:54:28.791Z,16.61804199
2023-04-27T10:55:30.320Z,16.64825439
2023-04-27T10:56:32.515Z,16.6885376
2023-04-27T10:57:34.356Z,16.7288208
2023-04-27T10:58:48.428Z,16.769104
2023-04-27T10:59:37.317Z,16.7791748
2023-04-27T11:00:38.940Z,16.80938721
2023-04-27T11:01:40.393Z,16.81945801
2023-04-27T11:03:13.244Z,16.81945801
2023-04-27T11:04:15.064Z,16.83959961
2023-04-27T11:05:16.427Z,16.83959961
2023-04-27T11:06:18.385Z,16.86981201
2023-04-27T11:07:19.938Z,16.91009521
2023-04-27T11:08:21.829Z,16.95037842
2023-04-27T11:09:23.250Z,16.96044922
2023-04-27T11:10:24.788Z,16.98059082
2023-04-27T11:11:26.433Z,16.95037842
2023-04-27T11:12:28.524Z,16.92016602
2023-04-27T11:13:30.286Z,16.92016602
2023-04-27T11:14:31.688Z,16.87988281
2023-04-27T11:15:33.373Z,16.87988281
2023-04-27T11:16:34.955Z,16.87988281
2023-04-27T11:17:36.836Z,16.91009521
2023-04-27T11:18:38.483Z,16.98059082
2023-04-27T11:20:11.847Z,16.99066162
2023-04-27T11:21:13.733Z,17.02087402
2023-04-27T11:22:15.396Z,17.05108643
2023-04-27T11:23:16.859Z,17.07122803
2023-04-27T11:24:18.361Z,17.06115723
2023-04-27T11:25:19.857Z,17.06115723
2023-04-27T11:26:21.380Z,17.10144043
2023-04-27T11:27:22.866Z,17.09136963
2023-04-27T11:28:24.903Z,17.10144043